WTB08M MDSD-TNCM
Flight info
| Callsign | WTB08M |
|---|---|
| Flight time | 1h 0m |
| Altitude | 33000 |
| Route | MELLA2L MELLA G633 MAZ RTE12 JOSHE DCT STIIV L577 GOUDA DCT PJM |
| Aircraft | R722/M-SDFGRWY/S |
Departure
| Time | 2026-05-04 09:58 |
|---|---|
| Airport | Las Américas International Airport (MDSD) |
Arrival
| Time | 2026-05-04 10:58 |
|---|---|
| Airport | Princess Juliana International Airport (TNCM) |
| Time | Latitude | Longitude | Altitude | Speed | Heading |
|---|---|---|---|---|---|
| 2026-05-04 09:25 | 18.43523 | -69.67634 | 64 ft | 0 kts | 296° |
| 2026-05-04 09:39 | 18.43522 | -69.67633 | 64 ft | 2 kts | 296° |
| 2026-05-04 09:39 | 18.43517 | -69.67620 | 57 ft | 2 kts | 291° |
| 2026-05-04 09:39 | 18.43520 | -69.67609 | 58 ft | 2 kts | 240° |
| 2026-05-04 09:39 | 18.43528 | -69.67606 | 60 ft | 2 kts | 172° |
| 2026-05-04 09:40 | 18.43532 | -69.67607 | 60 ft | 0 kts | 160° |
| 2026-05-04 09:46 | 18.43531 | -69.67607 | 60 ft | 0 kts | 160° |
| 2026-05-04 09:47 | 18.43528 | -69.67605 | 64 ft | 3 kts | 160° |
| 2026-05-04 09:49 | 18.43506 | -69.67291 | 61 ft | 9 kts | 134° |
| 2026-05-04 09:49 | 18.43449 | -69.67267 | 63 ft | 9 kts | 162° |
| 2026-05-04 09:49 | 18.43387 | -69.67246 | 66 ft | 9 kts | 161° |
| 2026-05-04 09:51 | 18.42981 | -69.67096 | 64 ft | 11 kts | 162° |
| 2026-05-04 09:51 | 18.42907 | -69.67069 | 66 ft | 12 kts | 161° |
| 2026-05-04 09:51 | 18.42830 | -69.67040 | 69 ft | 12 kts | 160° |
| 2026-05-04 09:51 | 18.42749 | -69.67010 | 63 ft | 13 kts | 161° |
| 2026-05-04 09:52 | 18.42665 | -69.66980 | 65 ft | 13 kts | 161° |
| 2026-05-04 09:52 | 18.42580 | -69.66946 | 65 ft | 13 kts | 158° |
| 2026-05-04 09:52 | 18.42493 | -69.66912 | 71 ft | 13 kts | 160° |
| 2026-05-04 09:52 | 18.42403 | -69.66880 | 71 ft | 14 kts | 163° |
| 2026-05-04 09:53 | 18.42312 | -69.66849 | 68 ft | 14 kts | 158° |
| 2026-05-04 09:53 | 18.42222 | -69.66815 | 71 ft | 14 kts | 162° |
| 2026-05-04 09:53 | 18.42131 | -69.66782 | 73 ft | 14 kts | 161° |
| 2026-05-04 09:53 | 18.42038 | -69.66749 | 74 ft | 14 kts | 161° |
| 2026-05-04 09:54 | 18.41945 | -69.66715 | 70 ft | 14 kts | 161° |
| 2026-05-04 09:54 | 18.41852 | -69.66681 | 73 ft | 14 kts | 160° |
| 2026-05-04 09:54 | 18.41760 | -69.66647 | 76 ft | 14 kts | 161° |
| 2026-05-04 09:54 | 18.41670 | -69.66614 | 77 ft | 12 kts | 161° |
| 2026-05-04 09:55 | 18.41626 | -69.66597 | 77 ft | 5 kts | 160° |
| 2026-05-04 09:55 | 18.41593 | -69.66582 | 78 ft | 5 kts | 146° |
| 2026-05-04 09:55 | 18.41570 | -69.66552 | 71 ft | 6 kts | 117° |
| 2026-05-04 09:55 | 18.41552 | -69.66515 | 73 ft | 6 kts | 116° |
| 2026-05-04 09:56 | 18.41535 | -69.66470 | 77 ft | 7 kts | 101° |
| 2026-05-04 09:56 | 18.41546 | -69.66417 | 77 ft | 8 kts | 53° |
| 2026-05-04 09:56 | 18.41601 | -69.66397 | 70 ft | 9 kts | 347° |
| 2026-05-04 09:56 | 18.41608 | -69.66399 | 77 ft | 0 kts | 345° |
| 2026-05-04 09:57 | 18.41772 | -69.66457 | 69 ft | 60 kts | 340° |
| 2026-05-04 09:57 | 18.42377 | -69.66679 | 69 ft | 121 kts | 341° |
| 2026-05-04 09:58 | 18.43317 | -69.67010 | 88 ft | 160 kts | 343° |
| 2026-05-04 09:58 | 18.44395 | -69.67403 | 474 ft | 165 kts | 341° |
| 2026-05-04 09:58 | 18.45469 | -69.67815 | 1010 ft | 166 kts | 343° |
| 2026-05-04 10:00 | 18.55765 | -69.70233 | 5034 ft | 244 kts | 26° |
| 2026-05-04 10:00 | 18.57198 | -69.69292 | 5862 ft | 244 kts | 45° |
| 2026-05-04 10:02 | 18.56575 | -69.56315 | 10233 ft | 294 kts | 107° |
| 2026-05-04 10:04 | 18.52702 | -69.40246 | 13775 ft | 337 kts | 105° |
| 2026-05-04 10:04 | 18.52166 | -69.37824 | 14273 ft | 341 kts | 104° |
| 2026-05-04 10:04 | 18.51637 | -69.35367 | 14747 ft | 346 kts | 104° |
| 2026-05-04 10:04 | 18.51097 | -69.32879 | 15234 ft | 350 kts | 105° |
| 2026-05-04 10:05 | 18.50550 | -69.30366 | 15720 ft | 355 kts | 105° |
| 2026-05-04 10:05 | 18.49993 | -69.27815 | 16200 ft | 359 kts | 105° |
| 2026-05-04 10:05 | 18.49429 | -69.25229 | 16694 ft | 364 kts | 105° |
| 2026-05-04 10:05 | 18.48866 | -69.22645 | 17184 ft | 368 kts | 105° |
| 2026-05-04 10:06 | 18.48286 | -69.19996 | 17684 ft | 372 kts | 105° |
| 2026-05-04 10:06 | 18.47703 | -69.17322 | 18233 ft | 375 kts | 105° |
| 2026-05-04 10:06 | 18.47315 | -69.15546 | 18572 ft | 377 kts | 105° |
| 2026-05-04 10:08 | 18.43730 | -68.99191 | 21719 ft | 387 kts | 104° |
| 2026-05-04 10:08 | 18.43122 | -68.96422 | 22260 ft | 389 kts | 104° |
| 2026-05-04 10:08 | 18.42508 | -68.93638 | 22802 ft | 391 kts | 104° |
| 2026-05-04 10:08 | 18.41861 | -68.90849 | 23341 ft | 393 kts | 105° |
| 2026-05-04 10:09 | 18.41175 | -68.88054 | 23830 ft | 395 kts | 105° |
| 2026-05-04 10:09 | 18.40498 | -68.85244 | 24219 ft | 399 kts | 105° |
| 2026-05-04 10:09 | 18.39828 | -68.82389 | 24589 ft | 404 kts | 105° |
| 2026-05-04 10:09 | 18.39146 | -68.79508 | 24996 ft | 407 kts | 105° |
| 2026-05-04 10:10 | 18.38449 | -68.76604 | 25407 ft | 410 kts | 105° |
| 2026-05-04 10:10 | 18.37747 | -68.73675 | 25801 ft | 414 kts | 105° |
| 2026-05-04 10:10 | 18.37042 | -68.70715 | 26189 ft | 418 kts | 105° |
| 2026-05-04 10:10 | 18.36329 | -68.67729 | 26576 ft | 422 kts | 105° |
| 2026-05-04 10:11 | 18.35606 | -68.64718 | 26903 ft | 426 kts | 105° |
| 2026-05-04 10:11 | 18.34881 | -68.61690 | 27185 ft | 429 kts | 104° |
| 2026-05-04 10:11 | 18.34162 | -68.58665 | 27481 ft | 432 kts | 105° |
| 2026-05-04 10:11 | 18.33414 | -68.55551 | 27793 ft | 435 kts | 105° |
| 2026-05-04 10:12 | 18.32667 | -68.52453 | 28050 ft | 438 kts | 105° |
| 2026-05-04 10:12 | 18.31929 | -68.49378 | 28309 ft | 441 kts | 104° |
| 2026-05-04 10:12 | 18.31178 | -68.46241 | 28582 ft | 443 kts | 105° |
| 2026-05-04 10:12 | 18.30420 | -68.43095 | 28845 ft | 446 kts | 105° |
| 2026-05-04 10:13 | 18.29656 | -68.39921 | 29106 ft | 448 kts | 105° |
| 2026-05-04 10:13 | 18.28890 | -68.36738 | 29364 ft | 451 kts | 105° |
| 2026-05-04 10:13 | 18.28115 | -68.33526 | 29611 ft | 454 kts | 105° |
| 2026-05-04 10:13 | 18.27337 | -68.30295 | 29887 ft | 457 kts | 105° |
| 2026-05-04 10:14 | 18.26552 | -68.27046 | 30149 ft | 459 kts | 105° |
| 2026-05-04 10:14 | 18.25763 | -68.23781 | 30399 ft | 461 kts | 105° |
| 2026-05-04 10:16 | 18.20291 | -68.00785 | 32287 ft | 467 kts | 96° |
| 2026-05-04 10:16 | 18.20149 | -67.97376 | 32522 ft | 467 kts | 89° |
| 2026-05-04 10:16 | 18.20298 | -67.93960 | 32755 ft | 468 kts | 84° |
| 2026-05-04 10:16 | 18.20641 | -67.90563 | 33013 ft | 469 kts | 83° |
| 2026-05-04 10:17 | 18.21126 | -67.83631 | 33046 ft | 481 kts | 87° |
| 2026-05-04 10:19 | 18.22810 | -67.58587 | 33037 ft | 492 kts | 85° |
| 2026-05-04 10:19 | 18.23044 | -67.54992 | 33037 ft | 492 kts | 85° |
| 2026-05-04 10:19 | 18.23509 | -67.47811 | 33044 ft | 492 kts | 85° |
| 2026-05-04 10:20 | 18.23987 | -67.40641 | 33044 ft | 492 kts | 85° |
| 2026-05-04 10:20 | 18.24456 | -67.33450 | 33045 ft | 492 kts | 85° |
| 2026-05-04 10:21 | 18.24919 | -67.26321 | 33054 ft | 492 kts | 85° |
| 2026-05-04 10:21 | 18.25384 | -67.19143 | 33048 ft | 492 kts | 85° |
| 2026-05-04 10:22 | 18.25566 | -67.08352 | 33059 ft | 493 kts | 93° |
| 2026-05-04 10:23 | 18.25313 | -67.01149 | 33065 ft | 492 kts | 89° |
| 2026-05-04 10:25 | 18.24731 | -66.72348 | 33068 ft | 493 kts | 90° |
| 2026-05-04 10:25 | 18.24588 | -66.65145 | 33067 ft | 493 kts | 90° |
| 2026-05-04 10:26 | 18.24413 | -66.57933 | 33071 ft | 493 kts | 90° |
| 2026-05-04 10:26 | 18.24253 | -66.50766 | 33074 ft | 493 kts | 90° |
| 2026-05-04 10:27 | 18.23988 | -66.43559 | 33076 ft | 493 kts | 92° |
| 2026-05-04 10:27 | 18.23686 | -66.36340 | 33073 ft | 493 kts | 91° |
| 2026-05-04 10:28 | 18.23407 | -66.29120 | 33073 ft | 494 kts | 91° |
| 2026-05-04 10:28 | 18.23109 | -66.21903 | 33073 ft | 494 kts | 91° |
| 2026-05-04 10:29 | 18.22819 | -66.14685 | 33073 ft | 493 kts | 91° |
| 2026-05-04 10:29 | 18.22519 | -66.07472 | 33069 ft | 493 kts | 91° |
| 2026-05-04 10:30 | 18.22223 | -66.00310 | 33069 ft | 493 kts | 91° |
| 2026-05-04 10:30 | 18.21920 | -65.93096 | 33072 ft | 493 kts | 91° |
| 2026-05-04 10:31 | 18.21616 | -65.85889 | 33073 ft | 494 kts | 91° |
| 2026-05-04 10:32 | 18.20526 | -65.60627 | 33069 ft | 494 kts | 91° |
| 2026-05-04 10:33 | 18.20211 | -65.53444 | 33070 ft | 494 kts | 91° |
| 2026-05-04 10:33 | 18.19891 | -65.46219 | 33067 ft | 494 kts | 91° |
| 2026-05-04 10:34 | 18.19567 | -65.38997 | 33067 ft | 494 kts | 91° |
| 2026-05-04 10:34 | 18.19241 | -65.31772 | 33072 ft | 494 kts | 91° |
| 2026-05-04 10:35 | 18.18914 | -65.24559 | 33065 ft | 494 kts | 91° |
| 2026-05-04 10:35 | 18.18583 | -65.17338 | 33063 ft | 494 kts | 91° |
| 2026-05-04 10:36 | 18.18248 | -65.10117 | 33056 ft | 494 kts | 91° |
| 2026-05-04 10:36 | 18.17912 | -65.02895 | 33061 ft | 494 kts | 91° |
| 2026-05-04 10:37 | 18.17418 | -64.95739 | 33060 ft | 493 kts | 97° |
| 2026-05-04 10:37 | 18.16811 | -64.92179 | 32830 ft | 497 kts | 101° |
| 2026-05-04 10:37 | 18.16013 | -64.88614 | 32179 ft | 492 kts | 103° |
| 2026-05-04 10:39 | 18.12017 | -64.66889 | 28155 ft | 508 kts | 99° |
| 2026-05-04 10:39 | 18.11403 | -64.63271 | 27487 ft | 499 kts | 100° |
| 2026-05-04 10:39 | 18.10735 | -64.59703 | 26831 ft | 494 kts | 101° |
| 2026-05-04 10:40 | 18.10053 | -64.56182 | 26189 ft | 486 kts | 101° |
| 2026-05-04 10:40 | 18.09421 | -64.52715 | 25555 ft | 478 kts | 100° |
| 2026-05-04 10:40 | 18.08817 | -64.49302 | 24926 ft | 471 kts | 100° |
| 2026-05-04 10:40 | 18.08197 | -64.45945 | 24312 ft | 464 kts | 101° |
| 2026-05-04 10:41 | 18.07571 | -64.42640 | 23706 ft | 457 kts | 101° |
| 2026-05-04 10:41 | 18.06970 | -64.39380 | 23048 ft | 452 kts | 100° |
| 2026-05-04 10:41 | 18.06392 | -64.36194 | 22463 ft | 450 kts | 101° |
| 2026-05-04 10:41 | 18.05794 | -64.32967 | 21867 ft | 449 kts | 101° |
| 2026-05-04 10:42 | 18.05192 | -64.29751 | 21288 ft | 447 kts | 101° |
| 2026-05-04 10:42 | 18.04600 | -64.26547 | 20695 ft | 446 kts | 101° |
| 2026-05-04 10:42 | 18.04012 | -64.23354 | 20108 ft | 443 kts | 101° |
| 2026-05-04 10:42 | 18.03422 | -64.20191 | 19531 ft | 443 kts | 102° |
| 2026-05-04 10:43 | 18.02830 | -64.17017 | 18944 ft | 443 kts | 102° |
| 2026-05-04 10:44 | 17.98861 | -63.95728 | 14988 ft | 404 kts | 102° |
| 2026-05-04 10:45 | 17.98320 | -63.92848 | 14461 ft | 399 kts | 102° |
| 2026-05-04 10:45 | 17.97788 | -63.90000 | 13943 ft | 393 kts | 102° |
| 2026-05-04 10:45 | 17.97263 | -63.87197 | 13380 ft | 387 kts | 102° |
| 2026-05-04 10:45 | 17.96740 | -63.84421 | 12876 ft | 386 kts | 102° |
| 2026-05-04 10:46 | 17.96222 | -63.81660 | 12363 ft | 385 kts | 101° |
| 2026-05-04 10:46 | 17.95707 | -63.78915 | 11857 ft | 382 kts | 101° |
| 2026-05-04 10:46 | 17.95199 | -63.76218 | 11365 ft | 366 kts | 101° |
| 2026-05-04 10:46 | 17.94729 | -63.73712 | 10886 ft | 342 kts | 101° |
| 2026-05-04 10:47 | 17.94283 | -63.71343 | 10441 ft | 320 kts | 101° |
| 2026-05-04 10:47 | 17.93863 | -63.69122 | 10028 ft | 301 kts | 101° |
| 2026-05-04 10:47 | 17.93469 | -63.67022 | 9613 ft | 285 kts | 99° |
| 2026-05-04 10:47 | 17.93487 | -63.64988 | 9246 ft | 276 kts | 77° |
| 2026-05-04 10:49 | 17.96480 | -63.52449 | 6932 ft | 220 kts | 77° |
| 2026-05-04 10:49 | 17.96817 | -63.50887 | 6651 ft | 219 kts | 78° |
| 2026-05-04 10:50 | 17.97150 | -63.49337 | 6364 ft | 217 kts | 78° |
| 2026-05-04 10:51 | 17.99313 | -63.39305 | 4392 ft | 179 kts | 79° |
| 2026-05-04 10:52 | 17.99588 | -63.38030 | 4158 ft | 178 kts | 79° |
| 2026-05-04 10:52 | 17.99859 | -63.36765 | 3938 ft | 177 kts | 80° |
| 2026-05-04 10:52 | 18.00135 | -63.35482 | 3707 ft | 180 kts | 80° |
| 2026-05-04 10:54 | 18.01752 | -63.27239 | 2355 ft | 148 kts | 85° |
| 2026-05-04 10:54 | 18.01903 | -63.26168 | 2281 ft | 148 kts | 84° |
| 2026-05-04 10:56 | 18.02930 | -63.19007 | 1325 ft | 143 kts | 84° |
| 2026-05-04 10:56 | 18.03070 | -63.18002 | 1129 ft | 136 kts | 83° |
| 2026-05-04 10:56 | 18.03211 | -63.17043 | 952 ft | 129 kts | 86° |
| 2026-05-04 10:57 | 18.03326 | -63.16110 | 732 ft | 133 kts | 83° |
| 2026-05-04 10:57 | 18.03488 | -63.15149 | 574 ft | 129 kts | 82° |
| 2026-05-04 10:57 | 18.03603 | -63.14217 | 302 ft | 134 kts | 88° |
| 2026-05-04 10:57 | 18.03720 | -63.13273 | 226 ft | 121 kts | 78° |
| 2026-05-04 10:58 | 18.03885 | -63.12371 | 70 ft | 135 kts | 81° |
| 2026-05-04 10:58 | 18.04007 | -63.11486 | 28 ft | 108 kts | 81° |
| 2026-05-04 10:58 | 18.04090 | -63.10903 | 26 ft | 44 kts | 84° |
| 2026-05-04 10:58 | 18.04107 | -63.10772 | 27 ft | 12 kts | 62° |
| 2026-05-04 10:59 | 18.04172 | -63.10747 | 26 ft | 10 kts | 343° |
| 2026-05-04 10:59 | 18.04184 | -63.10808 | 27 ft | 10 kts | 241° |
| 2026-05-04 10:59 | 18.04187 | -63.10875 | 28 ft | 10 kts | 281° |
| 2026-05-04 10:59 | 18.04182 | -63.10956 | 27 ft | 12 kts | 260° |
| 2026-05-04 11:00 | 18.04166 | -63.11044 | 26 ft | 13 kts | 262° |
| 2026-05-04 11:01 | 18.04057 | -63.11743 | 25 ft | 15 kts | 268° |
| 2026-05-04 11:02 | 18.04076 | -63.11820 | 26 ft | 7 kts | 301° |
| 2026-05-04 11:02 | 18.04084 | -63.11858 | 24 ft | 1 kts | 235° |